sensor_id;sensor_type;location;lat;lon;timestamp;pressure;altitude;pressure_sealevel;temperature;humidity
46598;BME280;32318;48.858;8.252;2022-07-23T00:00:52;100179.78;;;26.19;49.42
46598;BME280;32318;48.858;8.252;2022-07-23T00:08:52;100171.56;;;26.13;49.71
46598;BME280;32318;48.858;8.252;2022-07-23T00:16:52;100169.06;;;26.02;49.17
46598;BME280;32318;48.858;8.252;2022-07-23T00:24:53;100176.38;;;25.86;49.01
46598;BME280;32318;48.858;8.252;2022-07-23T00:32:58;100191.94;;;25.75;48.76
46598;BME280;32318;48.858;8.252;2022-07-23T00:40:59;100185.03;;;25.67;48.80
46598;BME280;32318;48.858;8.252;2022-07-23T00:48:59;100163.97;;;25.57;48.06
46598;BME280;32318;48.858;8.252;2022-07-23T00:56:59;100131.97;;;25.52;48.05
46598;BME280;32318;48.858;8.252;2022-07-23T01:05:00;100136.34;;;25.48;48.24
46598;BME280;32318;48.858;8.252;2022-07-23T01:13:03;100162.53;;;25.39;47.82
46598;BME280;32318;48.858;8.252;2022-07-23T01:21:04;100165.19;;;25.34;47.93
46598;BME280;32318;48.858;8.252;2022-07-23T01:29:04;100156.66;;;25.25;47.98
46598;BME280;32318;48.858;8.252;2022-07-23T01:37:05;100142.16;;;25.19;47.67
46598;BME280;32318;48.858;8.252;2022-07-23T01:45:05;100144.81;;;25.09;47.67
46598;BME280;32318;48.858;8.252;2022-07-23T01:53:06;100157.66;;;25.09;47.72
46598;BME280;32318;48.858;8.252;2022-07-23T02:01:06;100161.44;;;25.02;47.77
46598;BME280;32318;48.858;8.252;2022-07-23T02:09:06;100165.44;;;24.89;48.11
46598;BME280;32318;48.858;8.252;2022-07-23T02:17:07;100158.56;;;24.82;48.37
46598;BME280;32318;48.858;8.252;2022-07-23T02:25:08;100159.84;;;24.69;48.21
46598;BME280;32318;48.858;8.252;2022-07-23T02:33:09;100173.66;;;24.62;48.34
46598;BME280;32318;48.858;8.252;2022-07-23T02:41:09;100190.09;;;24.40;48.88
46598;BME280;32318;48.858;8.252;2022-07-23T02:49:09;100202.66;;;24.41;48.94
46598;BME280;32318;48.858;8.252;2022-07-23T02:57:10;100210.66;;;24.48;48.67
46598;BME280;32318;48.858;8.252;2022-07-23T03:05:10;100230.53;;;24.43;49.00
46598;BME280;32318;48.858;8.252;2022-07-23T03:13:10;100234.25;;;24.37;49.19
46598;BME280;32318;48.858;8.252;2022-07-23T03:21:10;100229.34;;;24.34;49.46
46598;BME280;32318;48.858;8.252;2022-07-23T03:29:11;100227.69;;;24.33;49.23
46598;BME280;32318;48.858;8.252;2022-07-23T03:37:11;100232.53;;;24.25;49.57
46598;BME280;32318;48.858;8.252;2022-07-23T03:45:12;100227.38;;;24.29;49.71
46598;BME280;32318;48.858;8.252;2022-07-23T03:53:12;100210.63;;;24.20;49.58
46598;BME280;32318;48.858;8.252;2022-07-23T04:01:13;100222.50;;;24.09;50.00
46598;BME280;32318;48.858;8.252;2022-07-23T04:09:13;100251.53;;;23.98;50.36
46598;BME280;32318;48.858;8.252;2022-07-23T04:17:14;100253.47;;;23.80;50.57
46598;BME280;32318;48.858;8.252;2022-07-23T04:25:14;100252.34;;;23.76;50.67
46598;BME280;32318;48.858;8.252;2022-07-23T04:33:17;100241.75;;;23.80;50.28
46598;BME280;32318;48.858;8.252;2022-07-23T04:41:17;100289.50;;;23.83;50.71
46598;BME280;32318;48.858;8.252;2022-07-23T04:49:17;100286.94;;;23.76;51.51
46598;BME280;32318;48.858;8.252;2022-07-23T04:57:17;100273.41;;;23.64;52.76
46598;BME280;32318;48.858;8.252;2022-07-23T05:05:18;100272.75;;;23.74;52.37
46598;BME280;32318;48.858;8.252;2022-07-23T05:13:18;100262.28;;;23.65;53.12
46598;BME280;32318;48.858;8.252;2022-07-23T05:21:19;100263.19;;;23.54;54.36
46598;BME280;32318;48.858;8.252;2022-07-23T05:29:19;100274.09;;;23.54;54.98
46598;BME280;32318;48.858;8.252;2022-07-23T05:37:19;100282.75;;;23.51;54.90
46598;BME280;32318;48.858;8.252;2022-07-23T05:45:19;100293.53;;;23.41;55.48
46598;BME280;32318;48.858;8.252;2022-07-23T05:53:20;100308.88;;;23.47;55.74
46598;BME280;32318;48.858;8.252;2022-07-23T06:01:20;100381.78;;;23.40;56.93
46598;BME280;32318;48.858;8.252;2022-07-23T06:09:20;100327.28;;;23.23;57.78
46598;BME280;32318;48.858;8.252;2022-07-23T06:17:20;100353.72;;;23.10;58.85
46598;BME280;32318;48.858;8.252;2022-07-23T06:25:21;100342.31;;;22.96;59.65
46598;BME280;32318;48.858;8.252;2022-07-23T06:33:21;100352.31;;;23.08;59.44
46598;BME280;32318;48.858;8.252;2022-07-23T06:41:21;100380.69;;;23.24;59.52
46598;BME280;32318;48.858;8.252;2022-07-23T06:49:22;100350.66;;;23.18;60.33
46598;BME280;32318;48.858;8.252;2022-07-23T06:57:22;100359.00;;;23.17;60.41
46598;BME280;32318;48.858;8.252;2022-07-23T07:05:25;100351.44;;;23.19;60.63
46598;BME280;32318;48.858;8.252;2022-07-23T07:13:27;100379.34;;;23.26;61.37
46598;BME280;32318;48.858;8.252;2022-07-23T07:21:28;100379.88;;;23.23;61.79
46598;BME280;32318;48.858;8.252;2022-07-23T07:29:28;100373.56;;;23.23;61.70
46598;BME280;32318;48.858;8.252;2022-07-23T07:37:28;100382.34;;;23.42;61.32
46598;BME280;32318;48.858;8.252;2022-07-23T07:45:30;100391.09;;;23.78;61.33
46598;BME280;32318;48.858;8.252;2022-07-23T07:53:30;100408.13;;;23.85;60.69
46598;BME280;32318;48.858;8.252;2022-07-23T08:01:30;100412.53;;;23.69;61.71
46598;BME280;32318;48.858;8.252;2022-07-23T08:09:31;100412.44;;;23.81;61.36
46598;BME280;32318;48.858;8.252;2022-07-23T08:17:31;100412.38;;;24.10;61.03
46598;BME280;32318;48.858;8.252;2022-07-23T08:25:34;100413.81;;;24.57;60.31
46598;BME280;32318;48.858;8.252;2022-07-23T08:33:34;100429.47;;;24.84;59.29
46598;BME280;32318;48.858;8.252;2022-07-23T08:41:35;100440.47;;;25.16;58.07
46598;BME280;32318;48.858;8.252;2022-07-23T08:49:35;100442.97;;;25.45;57.60
46598;BME280;32318;48.858;8.252;2022-07-23T08:57:35;100438.91;;;25.80;56.74
46598;BME280;32318;48.858;8.252;2022-07-23T09:05:36;100435.28;;;26.07;56.15
46598;BME280;32318;48.858;8.252;2022-07-23T09:13:47;100423.88;;;26.15;54.68
46598;BME280;32318;48.858;8.252;2022-07-23T09:21:47;100410.19;;;26.15;55.04
46598;BME280;32318;48.858;8.252;2022-07-23T09:29:56;100412.78;;;26.43;52.59
46598;BME280;32318;48.858;8.252;2022-07-23T09:38:02;100413.13;;;26.57;52.68
46598;BME280;32318;48.858;8.252;2022-07-23T09:54:39;100418.25;;;27.01;51.15
46598;BME280;32318;48.858;8.252;2022-07-23T10:02:40;100414.44;;;27.18;51.13
46598;BME280;32318;48.858;8.252;2022-07-23T10:10:40;100418.53;;;27.10;50.15
46598;BME280;32318;48.858;8.252;2022-07-23T10:18:41;100413.06;;;27.15;49.07
46598;BME280;32318;48.858;8.252;2022-07-23T10:26:58;100414.75;;;27.37;47.00
46598;BME280;32318;48.858;8.252;2022-07-23T10:43:15;100413.69;;;27.79;44.99
46598;BME280;32318;48.858;8.252;2022-07-23T10:51:16;100408.19;;;27.79;46.69
46598;BME280;32318;48.858;8.252;2022-07-23T10:59:16;100413.66;;;28.15;45.87
46598;BME280;32318;48.858;8.252;2022-07-23T11:07:17;100408.38;;;28.40;45.70
46598;BME280;32318;48.858;8.252;2022-07-23T11:15:17;100412.41;;;28.58;43.43
46598;BME280;32318;48.858;8.252;2022-07-23T11:23:17;100409.09;;;28.66;43.51
46598;BME280;32318;48.858;8.252;2022-07-23T11:31:18;100413.63;;;28.96;43.19
46598;BME280;32318;48.858;8.252;2022-07-23T11:39:20;100406.78;;;28.94;42.46
46598;BME280;32318;48.858;8.252;2022-07-23T11:47:25;100399.28;;;29.05;41.97
46598;BME280;32318;48.858;8.252;2022-07-23T11:55:27;100397.47;;;29.35;42.49
46598;BME280;32318;48.858;8.252;2022-07-23T12:03:28;100395.69;;;29.54;41.82
46598;BME280;32318;48.858;8.252;2022-07-23T12:11:28;100380.38;;;29.43;41.75
46598;BME280;32318;48.858;8.252;2022-07-23T12:19:29;100378.41;;;29.49;40.75
46598;BME280;32318;48.858;8.252;2022-07-23T12:27:30;100374.94;;;29.92;40.28
46598;BME280;32318;48.858;8.252;2022-07-23T12:35:33;100370.59;;;29.91;40.27
46598;BME280;32318;48.858;8.252;2022-07-23T12:43:39;100374.78;;;30.12;40.25
46598;BME280;32318;48.858;8.252;2022-07-23T12:51:40;100371.50;;;30.34;40.17
46598;BME280;32318;48.858;8.252;2022-07-23T12:59:42;100372.69;;;30.47;38.37
46598;BME280;32318;48.858;8.252;2022-07-23T13:07:43;100365.00;;;30.88;38.92
46598;BME280;32318;48.858;8.252;2022-07-23T13:15:43;100363.97;;;31.22;38.05
46598;BME280;32318;48.858;8.252;2022-07-23T13:23:44;100364.28;;;31.20;38.30
46598;BME280;32318;48.858;8.252;2022-07-23T13:31:44;100362.63;;;31.38;37.12
46598;BME280;32318;48.858;8.252;2022-07-23T13:39:44;100347.44;;;31.22;37.12
46598;BME280;32318;48.858;8.252;2022-07-23T13:47:45;100354.81;;;31.26;36.75
46598;BME280;32318;48.858;8.252;2022-07-23T13:55:47;100348.03;;;31.52;36.54
46598;BME280;32318;48.858;8.252;2022-07-23T14:03:47;100349.78;;;31.95;36.23
46598;BME280;32318;48.858;8.252;2022-07-23T14:11:48;100340.47;;;32.18;35.89
46598;BME280;32318;48.858;8.252;2022-07-23T14:19:48;100340.28;;;32.29;35.64
46598;BME280;32318;48.858;8.252;2022-07-23T14:27:49;100336.59;;;32.33;35.05
46598;BME280;32318;48.858;8.252;2022-07-23T14:35:49;100333.84;;;32.33;34.54
46598;BME280;32318;48.858;8.252;2022-07-23T14:43:49;100333.56;;;32.58;34.14
46598;BME280;32318;48.858;8.252;2022-07-23T14:51:50;100336.00;;;32.73;34.04
46598;BME280;32318;48.858;8.252;2022-07-23T14:59:50;100334.75;;;32.15;34.68
46598;BME280;32318;48.858;8.252;2022-07-23T15:07:50;100337.09;;;31.47;35.48
46598;BME280;32318;48.858;8.252;2022-07-23T15:15:51;100340.59;;;31.00;35.78
46598;BME280;32318;48.858;8.252;2022-07-23T15:23:51;100342.75;;;30.84;36.50
46598;BME280;32318;48.858;8.252;2022-07-23T15:31:52;100341.84;;;30.70;36.60
46598;BME280;32318;48.858;8.252;2022-07-23T15:39:52;100346.81;;;30.48;37.13
46598;BME280;32318;48.858;8.252;2022-07-23T15:47:54;100351.16;;;30.30;37.40
46598;BME280;32318;48.858;8.252;2022-07-23T15:55:54;100347.28;;;30.31;37.56
46598;BME280;32318;48.858;8.252;2022-07-23T16:03:56;100338.97;;;30.36;37.13
46598;BME280;32318;48.858;8.252;2022-07-23T16:11:58;100339.94;;;30.46;37.19
46598;BME280;32318;48.858;8.252;2022-07-23T16:19:59;100341.28;;;30.48;37.33
46598;BME280;32318;48.858;8.252;2022-07-23T16:27:59;100347.06;;;30.28;37.45
46598;BME280;32318;48.858;8.252;2022-07-23T16:36:00;100339.22;;;30.16;37.78
46598;BME280;32318;48.858;8.252;2022-07-23T16:44:00;100339.56;;;30.09;37.82
46598;BME280;32318;48.858;8.252;2022-07-23T16:52:01;100340.50;;;30.24;37.56
46598;BME280;32318;48.858;8.252;2022-07-23T17:00:04;100346.47;;;30.31;37.57
46598;BME280;32318;48.858;8.252;2022-07-23T17:08:04;100345.81;;;30.15;37.97
46598;BME280;32318;48.858;8.252;2022-07-23T17:16:05;100339.69;;;29.99;37.63
46598;BME280;32318;48.858;8.252;2022-07-23T17:24:05;100356.31;;;29.83;37.87
46598;BME280;32318;48.858;8.252;2022-07-23T17:32:06;100358.47;;;29.62;37.62
46598;BME280;32318;48.858;8.252;2022-07-23T17:40:07;100362.84;;;29.34;38.18
46598;BME280;32318;48.858;8.252;2022-07-23T17:48:08;100360.19;;;29.18;38.34
46598;BME280;32318;48.858;8.252;2022-07-23T17:56:08;100358.94;;;29.00;38.40
46598;BME280;32318;48.858;8.252;2022-07-23T18:04:08;100376.91;;;28.87;38.93
46598;BME280;32318;48.858;8.252;2022-07-23T18:12:10;100377.75;;;28.77;39.50
46598;BME280;32318;48.858;8.252;2022-07-23T18:20:11;100378.59;;;28.68;39.69
46598;BME280;32318;48.858;8.252;2022-07-23T18:28:12;100368.50;;;28.53;40.15
46598;BME280;32318;48.858;8.252;2022-07-23T18:36:12;100371.03;;;28.39;40.81
46598;BME280;32318;48.858;8.252;2022-07-23T18:44:12;100380.97;;;28.24;41.11
46598;BME280;32318;48.858;8.252;2022-07-23T18:52:14;100386.78;;;28.07;41.30
46598;BME280;32318;48.858;8.252;2022-07-23T19:00:15;100392.56;;;27.85;41.93
46598;BME280;32318;48.858;8.252;2022-07-23T19:08:16;100400.78;;;27.75;41.98
46598;BME280;32318;48.858;8.252;2022-07-23T19:16:17;100407.38;;;27.58;42.38
46598;BME280;32318;48.858;8.252;2022-07-23T19:24:17;100416.94;;;27.40;43.19
46598;BME280;32318;48.858;8.252;2022-07-23T19:32:18;100432.53;;;27.19;43.74
46598;BME280;32318;48.858;8.252;2022-07-23T19:40:18;100436.91;;;27.04;44.51
46598;BME280;32318;48.858;8.252;2022-07-23T19:48:19;100449.72;;;26.88;45.25
46598;BME280;32318;48.858;8.252;2022-07-23T19:56:19;100458.16;;;26.76;45.58
46598;BME280;32318;48.858;8.252;2022-07-23T20:04:20;100468.47;;;26.64;45.88
46598;BME280;32318;48.858;8.252;2022-07-23T20:12:21;100478.25;;;26.44;46.47
46598;BME280;32318;48.858;8.252;2022-07-23T20:20:21;100487.44;;;26.28;46.79
46598;BME280;32318;48.858;8.252;2022-07-23T20:28:21;100482.22;;;26.26;46.91
46598;BME280;32318;48.858;8.252;2022-07-23T20:36:22;100495.31;;;26.19;46.95
46598;BME280;32318;48.858;8.252;2022-07-23T20:44:22;100483.00;;;26.17;46.94
46598;BME280;32318;48.858;8.252;2022-07-23T20:52:23;100483.69;;;26.07;47.11
46598;BME280;32318;48.858;8.252;2022-07-23T21:00:23;100492.06;;;25.90;47.22
46598;BME280;32318;48.858;8.252;2022-07-23T21:08:24;100503.41;;;25.76;47.86
46598;BME280;32318;48.858;8.252;2022-07-23T21:16:24;100502.44;;;25.60;47.96
46598;BME280;32318;48.858;8.252;2022-07-23T21:24:24;100514.66;;;25.52;48.26
46598;BME280;32318;48.858;8.252;2022-07-23T21:32:24;100531.25;;;25.46;48.09
46598;BME280;32318;48.858;8.252;2022-07-23T21:40:25;100521.59;;;25.38;48.73
46598;BME280;32318;48.858;8.252;2022-07-23T21:48:26;100523.91;;;25.24;48.61
46598;BME280;32318;48.858;8.252;2022-07-23T21:56:27;100521.88;;;25.14;48.99
46598;BME280;32318;48.858;8.252;2022-07-23T22:04:27;100529.06;;;24.98;48.94
46598;BME280;32318;48.858;8.252;2022-07-23T22:12:27;100529.16;;;24.86;49.23
46598;BME280;32318;48.858;8.252;2022-07-23T22:20:28;100532.25;;;24.73;49.65
46598;BME280;32318;48.858;8.252;2022-07-23T22:28:28;100524.00;;;24.68;49.66
46598;BME280;32318;48.858;8.252;2022-07-23T22:36:28;100529.59;;;24.61;49.91
46598;BME280;32318;48.858;8.252;2022-07-23T22:44:29;100530.94;;;24.41;49.97
46598;BME280;32318;48.858;8.252;2022-07-23T22:52:29;100535.41;;;24.31;50.22
46598;BME280;32318;48.858;8.252;2022-07-23T23:00:30;100547.34;;;24.24;50.36
46598;BME280;32318;48.858;8.252;2022-07-23T23:08:30;100545.09;;;24.21;50.75
46598;BME280;32318;48.858;8.252;2022-07-23T23:16:31;100544.50;;;24.19;50.44
46598;BME280;32318;48.858;8.252;2022-07-23T23:24:31;100534.53;;;24.08;50.75
46598;BME280;32318;48.858;8.252;2022-07-23T23:32:31;100548.16;;;24.08;50.81
46598;BME280;32318;48.858;8.252;2022-07-23T23:40:31;100541.53;;;24.04;51.06
46598;BME280;32318;48.858;8.252;2022-07-23T23:48:32;100545.63;;;23.89;51.45
46598;BME280;32318;48.858;8.252;2022-07-23T23:56:32;100538.91;;;23.80;51.41
